METAR Data
IDs: Format: Raw Decoded Include TAF

Data at: 1019 UTC 26 Sep 2018

KFYM 260955Z AUTO 00000KT 10SM OVC004 23/23 A3004 RMK A01
KFYM 260935Z AUTO 00000KT 9SM BKN005 OVC011 23/23 A3004 RMK A01
KFYM 260915Z AUTO 19003KT 6SM BR SCT004 BKN009 OVC026 23/23 A3004 RMK A01
KFYM 260855Z AUTO 00000KT 10SM SCT005 BKN009 OVC027 23/23 A3004 RMK A01
KFYM 260835Z AUTO 21005KT 10SM FEW005 BKN026 OVC033 23/23 A3005 RMK A01
KFYM 260815Z AUTO 18005KT 10SM SCT028 OVC035 23/22 A3005 RMK A01
KFYM 260755Z AUTO 18006KT 10SM SCT030 BKN035 OVC090 22/22 A3005 RMK A01
KFYM 260735Z AUTO 16003KT 10SM BKN030 BKN055 OVC095 22/22 A3005 RMK A01
KFYM 260715Z AUTO 17004KT 10SM BKN030 BKN055 OVC085 23/22 A3006 RMK A01
KFYM 260655Z AUTO 00000KT 10SM SCT029 SCT080 BKN120 23/22 A3007 RMK A01
KFYM 260635Z AUTO 19006KT 10SM SCT120 23/22 A3007 RMK A01
KFYM 260615Z AUTO 20005KT 10SM CLR 22/22 A3006 RMK A01
KFYM 260555Z AUTO 18007KT 10SM CLR 22/22 A3006 RMK A01
KFYM 260535Z AUTO 19006KT 10SM CLR 22/22 A3006 RMK A01
KFYM 260515Z AUTO 19006KT 10SM CLR 22/22 A3007 RMK A01
KFYM 260455Z AUTO 20006KT 10SM FEW120 23/22 A3008 RMK A01
KFYM 260435Z AUTO 20006KT 10SM BKN110 23/22 A3008 RMK A01
KFYM 260415Z AUTO 20005KT 10SM FEW060 FEW075 OVC100 22/22 A3009 RMK A01
KFYM 260355Z AUTO 18006KT 9SM FEW028 SCT060 BKN075 22/22 A3009 RMK A01
KFYM 260335Z AUTO 18006KT 10SM FEW075 BKN090 OVC110 23/22 A3009 RMK A01
KFYM 260315Z AUTO 18007KT 10SM BKN090 BKN110 23/22 A3010 RMK A01
KFYM 260255Z AUTO 19005KT 10SM FEW004 SCT050 BKN095 23/22 A3009 RMK A01
KFYM 260235Z AUTO 19005KT 10SM FEW004 SCT045 BKN055 23/22 A3009 RMK A01
KFYM 260215Z AUTO 17006KT 10SM SCT046 BKN110 23/23 A3008 RMK A01
KFYM 260155Z AUTO 20006KT 10SM FEW004 BKN110 23/23 A3008 RMK A01
KFYM 260135Z AUTO 19005KT 10SM FEW029 FEW085 BKN110 23/22 A3008 RMK A01
KFYM 260115Z AUTO 17006KT 10SM FEW029 SCT070 BKN085 23/22 A3007 RMK A01
KFYM 260055Z AUTO 18006KT 10SM BKN070 OVC090 23/22 A3006 RMK A01
KFYM 260035Z AUTO 21004KT 10SM FEW036 BKN070 OVC090 23/22 A3005 RMK A01
KFYM 260015Z AUTO 21006KT 10SM SCT034 BKN065 OVC110 23/23 A3004 RMK A01
KFYM 252355Z AUTO 19010KT 6SM BR FEW006 SCT020 BKN039 23/23 A3005 RMK A01 P0001
KFYM 252335Z AUTO 18010KT 10SM FEW021 BKN039 OVC095 23/23 A3005 RMK A01
KFYM 252315Z AUTO 00000KT 10SM FEW037 BKN080 BKN095 23/23 A3003 RMK A01
KFYM 252255Z AUTO 00000KT 10SM FEW041 SCT050 OVC080 23/23 A3003 RMK A01 P0016
KFYM 252235Z AUTO 00000KT 10SM FEW004 SCT040 BKN050 23/22 A3003 RMK A01
KFYM 252215Z AUTO 15004G15KT 1 1/4SM BR SCT003 BKN025 OVC037 23/22 A3003 RMK A01
KFYM 252155Z AUTO 21006KT 9SM SCT030 BKN035 OVC050 24/23 A3003 RMK A01 P0050
KFYM 252135Z AUTO 13003KT 10SM FEW003 FEW025 BKN033 25/23 A3002 RMK A01
KFYM 252115Z AUTO 09009G18KT 1/4SM FG OVC003 23/22 A3002 RMK A01
KFYM 252055Z AUTO 18004KT 10SM BKN035 BKN045 BKN080 28/22 A3002 RMK A01
KFYM 252035Z AUTO 20005KT 10SM SCT037 BKN045 BKN060 29/22 A3002 RMK A01
KFYM 252015Z AUTO 20006G12KT 10SM FEW036 FEW055 SCT080 29/22 A3002 RMK A01
KFYM 251955Z AUTO 19008KT 9SM FEW050 BKN080 28/22 A3004 RMK A01
KFYM 251935Z AUTO 20008KT 10SM FEW033 FEW043 BKN080 29/22 A3005 RMK A01
KFYM 251915Z AUTO 19007KT 10SM FEW034 BKN044 OVC080 28/21 A3005 RMK A01
KFYM 251855Z AUTO 19014KT 10SM SCT036 BKN045 BKN055 29/21 A3006 RMK A01
KFYM 251835Z AUTO 18010G19KT 10SM BKN033 BKN040 29/21 A3007 RMK A01
KFYM 251815Z AUTO 18013KT 10SM SCT033 SCT050 SCT060 29/22 A3008 RMK A01
KFYM 251755Z AUTO 18014KT 10SM FEW029 SCT035 BKN048 29/21 A3008 RMK A01
KFYM 251735Z AUTO 18010KT 10SM BKN030 BKN037 OVC048 28/22 A3009 RMK A01
KFYM 251715Z AUTO 19010KT 10SM SCT027 BKN034 BKN042 28/22 A3010 RMK A01
KFYM 251655Z AUTO 20014KT 170V230 10SM FEW023 SCT029 BKN035 27/22 A3010 RMK A01
KFYM 251635Z AUTO 18009KT 10SM SCT021 BKN028 OVC036 27/22 A3011 RMK A01
KFYM 251615Z AUTO 18008KT 10SM SCT018 BKN024 BKN030 26/23 A3011 RMK A01
KFYM 251555Z AUTO 18008KT 10SM SCT016 BKN024 BKN038 25/23 A3011 RMK A01
KFYM 251535Z AUTO 18009KT 9SM BKN015 BKN021 OVC027 24/23 A3012 RMK A01
KFYM 251515Z AUTO 17012KT 7SM BKN015 OVC024 25/22 A3012 RMK A01
KFYM 251445Z AUTO 17009KT 10SM OVC013 24/22 A3012 RMK A01
KFYM 251415Z AUTO 19009KT 10SM OVC013 24/22 A3012 RMK A01
KFYM 251345Z AUTO 18011KT 10SM BKN010 OVC014 24/22 A3012 RMK A01
KFYM 251335Z AUTO 17012KT 10SM BKN009 OVC014 23/22 A3012 RMK A01
KFYM 251315Z AUTO 17012KT 10SM SCT008 OVC017 23/22 A3011 RMK A01
KFYM 251255Z AUTO 16007KT 10SM SCT008 OVC017 23/22 A3011 RMK A01
KFYM 251235Z AUTO 19008KT 10SM BKN008 OVC017 23/22 A3011 RMK A01
KFYM 251215Z AUTO 17008G13KT 10SM BKN008 OVC018 22/22 A3010 RMK A01
KFYM 251155Z AUTO 18009KT 10SM FEW008 SCT018 BKN024 22/22 A3010 RMK A01
KFYM 251135Z AUTO 16010KT 10SM FEW008 BKN025 BKN029 22/21 A3009 RMK A01
KFYM 251115Z AUTO 17009G14KT 10SM BKN026 BKN045 BKN055 22/21 A3009 RMK A01
KFYM 251055Z AUTO 17010G16KT 10SM FEW008 SCT027 BKN034 22/21 A3009 RMK A01
KFYM 251035Z AUTO 17009KT 10SM FEW011 SCT035 BKN043 22/21 A3008 RMK A01
KFYM 251015Z AUTO 16007KT 10SM FEW013 SCT028 BKN049 22/21 A3009 RMK A01
KFYM 250955Z AUTO 17009KT 10SM SCT042 BKN065 OVC110 22/21 A3009 RMK A01
KFYM 250935Z AUTO 17008KT 10SM SCT039 BKN065 OVC120 22/21 A3008 RMK A01
KFYM 250915Z AUTO 17008KT 10SM FEW041 SCT049 BKN060 22/21 A3008 RMK A01
KFYM 250850Z AUTO 17007KT 10SM SCT041 BKN080 22/21 A3008 RMK A01
KFYM 250645Z AUTO 17009KT 10SM FEW040 BKN048 OVC075 22/21 A3008 RMK A01
KFYM 250635Z AUTO 16007KT 10SM SCT041 BKN047 OVC085 22/21 A3008 RMK A01
KFYM 250615Z AUTO 16011KT 10SM SCT043 BKN075 OVC110 22/21 A3008 RMK A01
KFYM 250555Z AUTO 17010KT 10SM BKN070 OVC110 22/21 A3008 RMK A01
KFYM 250535Z AUTO 16008KT 10SM FEW055 SCT065 BKN075 22/21 A3008 RMK A01
KFYM 250515Z AUTO 16008KT 10SM BKN060 BKN070 OVC095 22/21 A3008 RMK A01
KFYM 250455Z AUTO 16007KT 10SM FEW055 SCT070 BKN095 22/21 A3008 RMK A01
KFYM 250435Z AUTO 16008KT 10SM FEW015 BKN031 BKN075 22/21 A3009 RMK A01
KFYM 250415Z AUTO 17009KT 10SM SCT016 BKN027 OVC075 22/21 A3010 RMK A01
KFYM 250355Z AUTO 16012KT 10SM OVC075 22/21 A3009 RMK A01
KFYM 250335Z AUTO 16009KT 10SM FEW016 FEW060 BKN070 22/22 A3009 RMK A01
KFYM 250315Z AUTO 15007KT 10SM FEW005 SCT015 BKN050 22/22 A3008 RMK A01
KFYM 250255Z AUTO 16005KT 10SM SCT007 BKN014 OVC060 22/22 A3007 RMK A01 P0003
KFYM 250235Z AUTO 18006KT 7SM SCT010 BKN014 OVC019 23/22 A3007 RMK A01
KFYM 250215Z AUTO 00000KT 10SM FEW008 SCT012 OVC019 23/23 A3007 RMK A01
KFYM 250155Z AUTO 14004KT 10SM SCT021 OVC030 23/22 A3006 RMK A01 P0023
KFYM 250135Z AUTO 15004KT 9SM FEW004 BKN030 OVC036 22/22 A3006 RMK A01
KFYM 250115Z AUTO 15005G10KT 1 1/2SM BR BKN003 BKN016 OVC029 22/22 A3005 RMK A01
KFYM 250055Z AUTO 18008G17KT 1 1/4SM BR BKN003 BKN018 OVC028 22/22 A3005 RMK A01 P0064
KFYM 250035Z AUTO 16008KT 10SM BKN038 BKN065 BKN075 23/22 A3004 RMK A01
KFYM 250015Z AUTO 14010KT 10SM FEW032 BKN046 BKN070 23/22 A3004 RMK A01
KFYM 242355Z AUTO VRB03KT 10SM FEW032 BKN043 BKN075 23/23 A3003 RMK A01
KFYM 242335Z AUTO 10004KT 10SM FEW026 FEW040 BKN045 24/23 A3003 RMK A01
KFYM 242315Z AUTO 09004KT 10SM SCT025 BKN029 BKN043 24/23 A3003 RMK A01
KFYM 242255Z AUTO 08004KT 10SM BKN025 BKN033 OVC041 24/24 A3002 RMK A01
KFYM 242235Z AUTO 10007KT 9SM FEW025 SCT030 BKN042 25/24 A3001 RMK A01